sensor_id;sensor_type;location;lat;lon;timestamp;temperature;humidity
2389;DHT22;1205;47.984;7.668;2023-07-31T00:00:12;17.90;99.90
2389;DHT22;1205;47.984;7.668;2023-07-31T00:02:38;17.90;99.90
2389;DHT22;1205;47.984;7.668;2023-07-31T00:05:04;17.90;99.90
2389;DHT22;1205;47.984;7.668;2023-07-31T00:07:30;17.90;99.90
2389;DHT22;1205;47.984;7.668;2023-07-31T00:09:55;17.90;99.90
2389;DHT22;1205;47.984;7.668;2023-07-31T00:12:22;17.90;99.90
2389;DHT22;1205;47.984;7.668;2023-07-31T00:14:48;17.80;99.90
2389;DHT22;1205;47.984;7.668;2023-07-31T00:17:14;17.90;99.90
2389;DHT22;1205;47.984;7.668;2023-07-31T00:19:39;17.90;99.90
2389;DHT22;1205;47.984;7.668;2023-07-31T00:22:05;17.90;99.90
2389;DHT22;1205;47.984;7.668;2023-07-31T00:24:31;17.90;99.90
2389;DHT22;1205;47.984;7.668;2023-07-31T00:26:56;17.80;99.90
2389;DHT22;1205;47.984;7.668;2023-07-31T00:29:22;17.80;99.90
2389;DHT22;1205;47.984;7.668;2023-07-31T00:31:47;17.70;99.90
2389;DHT22;1205;47.984;7.668;2023-07-31T00:34:13;17.70;99.90
2389;DHT22;1205;47.984;7.668;2023-07-31T00:36:38;17.60;99.90
2389;DHT22;1205;47.984;7.668;2023-07-31T00:39:04;17.50;99.90
2389;DHT22;1205;47.984;7.668;2023-07-31T00:41:30;17.70;99.90
2389;DHT22;1205;47.984;7.668;2023-07-31T00:43:55;17.70;99.90
2389;DHT22;1205;47.984;7.668;2023-07-31T00:46:21;17.60;99.90
2389;DHT22;1205;47.984;7.668;2023-07-31T00:48:47;17.60;99.90
2389;DHT22;1205;47.984;7.668;2023-07-31T00:51:12;17.50;99.90
2389;DHT22;1205;47.984;7.668;2023-07-31T00:53:40;17.40;99.90
2389;DHT22;1205;47.984;7.668;2023-07-31T00:56:05;17.40;99.90
2389;DHT22;1205;47.984;7.668;2023-07-31T00:58:31;17.40;99.90
2389;DHT22;1205;47.984;7.668;2023-07-31T01:00:57;17.50;99.90
2389;DHT22;1205;47.984;7.668;2023-07-31T01:03:22;17.40;99.90
2389;DHT22;1205;47.984;7.668;2023-07-31T01:08:40;17.40;99.90
2389;DHT22;1205;47.984;7.668;2023-07-31T01:11:31;17.50;99.90
2389;DHT22;1205;47.984;7.668;2023-07-31T01:13:58;17.40;99.90
2389;DHT22;1205;47.984;7.668;2023-07-31T01:16:25;17.40;99.90
2389;DHT22;1205;47.984;7.668;2023-07-31T01:18:52;17.30;99.90
2389;DHT22;1205;47.984;7.668;2023-07-31T01:26:49;17.30;99.90
2389;DHT22;1205;47.984;7.668;2023-07-31T01:29:55;17.20;99.90
2389;DHT22;1205;47.984;7.668;2023-07-31T01:32:18;17.10;99.90
2389;DHT22;1205;47.984;7.668;2023-07-31T01:34:44;17.00;99.90
2389;DHT22;1205;47.984;7.668;2023-07-31T01:37:10;17.10;99.90
2389;DHT22;1205;47.984;7.668;2023-07-31T01:39:35;17.00;99.90
2389;DHT22;1205;47.984;7.668;2023-07-31T01:42:01;17.10;99.90
2389;DHT22;1205;47.984;7.668;2023-07-31T01:44:26;17.10;99.90
2389;DHT22;1205;47.984;7.668;2023-07-31T01:46:52;17.10;99.90
2389;DHT22;1205;47.984;7.668;2023-07-31T01:49:18;17.10;99.90
2389;DHT22;1205;47.984;7.668;2023-07-31T01:51:43;17.10;99.90
2389;DHT22;1205;47.984;7.668;2023-07-31T01:54:09;17.10;99.90
2389;DHT22;1205;47.984;7.668;2023-07-31T01:56:34;17.10;99.90
2389;DHT22;1205;47.984;7.668;2023-07-31T01:59:00;17.00;99.90
2389;DHT22;1205;47.984;7.668;2023-07-31T02:01:25;16.90;99.90
2389;DHT22;1205;47.984;7.668;2023-07-31T02:03:51;16.90;99.90
2389;DHT22;1205;47.984;7.668;2023-07-31T02:06:16;16.90;99.90
2389;DHT22;1205;47.984;7.668;2023-07-31T02:08:42;16.80;99.90
2389;DHT22;1205;47.984;7.668;2023-07-31T02:11:07;16.70;99.90
2389;DHT22;1205;47.984;7.668;2023-07-31T02:13:33;16.80;99.90
2389;DHT22;1205;47.984;7.668;2023-07-31T02:15:58;16.80;99.90
2389;DHT22;1205;47.984;7.668;2023-07-31T02:18:24;16.70;99.90
2389;DHT22;1205;47.984;7.668;2023-07-31T02:20:50;16.80;99.90
2389;DHT22;1205;47.984;7.668;2023-07-31T02:23:17;16.80;99.90
2389;DHT22;1205;47.984;7.668;2023-07-31T02:25:43;16.70;99.90
2389;DHT22;1205;47.984;7.668;2023-07-31T02:28:09;16.70;99.90
2389;DHT22;1205;47.984;7.668;2023-07-31T02:30:34;16.70;99.90
2389;DHT22;1205;47.984;7.668;2023-07-31T02:33:00;16.70;99.90
2389;DHT22;1205;47.984;7.668;2023-07-31T02:35:25;16.60;99.90
2389;DHT22;1205;47.984;7.668;2023-07-31T02:37:51;16.60;99.90
2389;DHT22;1205;47.984;7.668;2023-07-31T02:40:16;16.60;99.90
2389;DHT22;1205;47.984;7.668;2023-07-31T02:42:42;16.50;99.90
2389;DHT22;1205;47.984;7.668;2023-07-31T02:45:09;16.60;99.90
2389;DHT22;1205;47.984;7.668;2023-07-31T02:47:34;16.60;99.90
2389;DHT22;1205;47.984;7.668;2023-07-31T02:50:01;16.60;99.90
2389;DHT22;1205;47.984;7.668;2023-07-31T02:52:26;16.50;99.90
2389;DHT22;1205;47.984;7.668;2023-07-31T02:54:52;16.40;99.90
2389;DHT22;1205;47.984;7.668;2023-07-31T02:57:17;16.40;99.90
2389;DHT22;1205;47.984;7.668;2023-07-31T02:59:43;16.40;99.90
2389;DHT22;1205;47.984;7.668;2023-07-31T03:02:09;16.30;99.90
2389;DHT22;1205;47.984;7.668;2023-07-31T03:04:34;16.50;99.90
2389;DHT22;1205;47.984;7.668;2023-07-31T03:07:00;16.50;99.90
2389;DHT22;1205;47.984;7.668;2023-07-31T03:09:25;16.50;99.90
2389;DHT22;1205;47.984;7.668;2023-07-31T03:11:51;16.60;99.90
2389;DHT22;1205;47.984;7.668;2023-07-31T03:14:16;16.60;99.90
2389;DHT22;1205;47.984;7.668;2023-07-31T03:16:42;16.60;99.90
2389;DHT22;1205;47.984;7.668;2023-07-31T03:19:07;16.70;99.90
2389;DHT22;1205;47.984;7.668;2023-07-31T03:21:33;16.70;99.90
2389;DHT22;1205;47.984;7.668;2023-07-31T03:23:58;16.70;99.90
2389;DHT22;1205;47.984;7.668;2023-07-31T03:26:24;16.80;99.90
2389;DHT22;1205;47.984;7.668;2023-07-31T03:28:49;16.80;99.90
2389;DHT22;1205;47.984;7.668;2023-07-31T03:31:15;16.70;99.90
2389;DHT22;1205;47.984;7.668;2023-07-31T03:33:40;16.60;99.90
2389;DHT22;1205;47.984;7.668;2023-07-31T03:36:06;16.70;99.90
2389;DHT22;1205;47.984;7.668;2023-07-31T03:38:33;16.60;99.90
2389;DHT22;1205;47.984;7.668;2023-07-31T03:40:59;16.50;99.90
2389;DHT22;1205;47.984;7.668;2023-07-31T03:43:24;16.50;99.90
2389;DHT22;1205;47.984;7.668;2023-07-31T03:45:50;16.50;99.90
2389;DHT22;1205;47.984;7.668;2023-07-31T03:48:16;16.60;99.90
2389;DHT22;1205;47.984;7.668;2023-07-31T03:50:42;16.80;99.90
2389;DHT22;1205;47.984;7.668;2023-07-31T03:53:07;16.90;99.90
2389;DHT22;1205;47.984;7.668;2023-07-31T03:55:33;16.80;99.90
2389;DHT22;1205;47.984;7.668;2023-07-31T03:57:58;16.90;99.90
2389;DHT22;1205;47.984;7.668;2023-07-31T04:00:26;16.90;99.90
2389;DHT22;1205;47.984;7.668;2023-07-31T04:02:52;16.90;99.90
2389;DHT22;1205;47.984;7.668;2023-07-31T04:05:18;16.80;99.90
2389;DHT22;1205;47.984;7.668;2023-07-31T04:07:43;16.90;99.90
2389;DHT22;1205;47.984;7.668;2023-07-31T04:10:09;16.90;99.90
2389;DHT22;1205;47.984;7.668;2023-07-31T04:12:34;16.90;99.90
2389;DHT22;1205;47.984;7.668;2023-07-31T04:15:00;16.90;99.90
2389;DHT22;1205;47.984;7.668;2023-07-31T04:17:26;17.00;99.90
2389;DHT22;1205;47.984;7.668;2023-07-31T04:19:51;17.10;99.90
2389;DHT22;1205;47.984;7.668;2023-07-31T04:22:17;17.20;99.90
2389;DHT22;1205;47.984;7.668;2023-07-31T04:24:42;17.20;99.90
2389;DHT22;1205;47.984;7.668;2023-07-31T04:27:08;17.20;99.90
2389;DHT22;1205;47.984;7.668;2023-07-31T04:29:34;17.20;99.90
2389;DHT22;1205;47.984;7.668;2023-07-31T04:31:59;17.30;99.90
2389;DHT22;1205;47.984;7.668;2023-07-31T04:34:25;17.20;99.90
2389;DHT22;1205;47.984;7.668;2023-07-31T04:36:50;17.30;99.90
2389;DHT22;1205;47.984;7.668;2023-07-31T04:39:16;17.20;99.90
2389;DHT22;1205;47.984;7.668;2023-07-31T04:41:41;17.20;99.90
2389;DHT22;1205;47.984;7.668;2023-07-31T04:44:07;17.20;99.90
2389;DHT22;1205;47.984;7.668;2023-07-31T04:46:32;17.20;99.90
2389;DHT22;1205;47.984;7.668;2023-07-31T04:48:58;17.30;99.90
2389;DHT22;1205;47.984;7.668;2023-07-31T04:51:23;17.40;99.90
2389;DHT22;1205;47.984;7.668;2023-07-31T04:53:50;17.30;99.90
2389;DHT22;1205;47.984;7.668;2023-07-31T04:56:16;17.40;99.90
2389;DHT22;1205;47.984;7.668;2023-07-31T04:58:41;17.40;99.90
2389;DHT22;1205;47.984;7.668;2023-07-31T05:01:07;17.40;99.90
2389;DHT22;1205;47.984;7.668;2023-07-31T05:03:32;17.50;99.90
2389;DHT22;1205;47.984;7.668;2023-07-31T05:05:58;17.50;99.90
2389;DHT22;1205;47.984;7.668;2023-07-31T05:08:24;17.80;99.90
2389;DHT22;1205;47.984;7.668;2023-07-31T05:10:49;18.20;99.90
2389;DHT22;1205;47.984;7.668;2023-07-31T05:13:15;18.50;99.90
2389;DHT22;1205;47.984;7.668;2023-07-31T05:15:41;18.60;99.90
2389;DHT22;1205;47.984;7.668;2023-07-31T05:18:07;18.80;99.90
2389;DHT22;1205;47.984;7.668;2023-07-31T05:20:32;18.90;99.90
2389;DHT22;1205;47.984;7.668;2023-07-31T05:22:58;19.00;99.90
2389;DHT22;1205;47.984;7.668;2023-07-31T05:25:24;19.00;99.90
2389;DHT22;1205;47.984;7.668;2023-07-31T05:27:49;19.30;99.90
2389;DHT22;1205;47.984;7.668;2023-07-31T05:30:15;19.40;99.90
2389;DHT22;1205;47.984;7.668;2023-07-31T05:32:40;19.40;99.90
2389;DHT22;1205;47.984;7.668;2023-07-31T05:35:06;19.30;99.90
2389;DHT22;1205;47.984;7.668;2023-07-31T05:37:32;19.40;99.90
2389;DHT22;1205;47.984;7.668;2023-07-31T05:39:58;19.60;99.90
2389;DHT22;1205;47.984;7.668;2023-07-31T05:42:23;19.70;99.90
2389;DHT22;1205;47.984;7.668;2023-07-31T05:44:49;19.70;99.90
2389;DHT22;1205;47.984;7.668;2023-07-31T05:47:14;19.70;99.90
2389;DHT22;1205;47.984;7.668;2023-07-31T05:49:40;19.80;99.90
2389;DHT22;1205;47.984;7.668;2023-07-31T05:52:06;19.70;99.90
2389;DHT22;1205;47.984;7.668;2023-07-31T05:54:32;19.80;99.90
2389;DHT22;1205;47.984;7.668;2023-07-31T05:56:58;19.70;99.90
2389;DHT22;1205;47.984;7.668;2023-07-31T05:59:23;19.80;99.90
2389;DHT22;1205;47.984;7.668;2023-07-31T06:01:49;19.90;99.90
2389;DHT22;1205;47.984;7.668;2023-07-31T06:04:14;19.90;99.90
2389;DHT22;1205;47.984;7.668;2023-07-31T06:06:40;20.20;99.90
2389;DHT22;1205;47.984;7.668;2023-07-31T06:09:06;20.30;99.90
2389;DHT22;1205;47.984;7.668;2023-07-31T06:11:32;20.40;99.90
2389;DHT22;1205;47.984;7.668;2023-07-31T06:13:58;20.50;99.90
2389;DHT22;1205;47.984;7.668;2023-07-31T06:16:25;20.60;99.90
2389;DHT22;1205;47.984;7.668;2023-07-31T06:18:52;20.60;99.90
2389;DHT22;1205;47.984;7.668;2023-07-31T06:21:17;20.40;99.90
2389;DHT22;1205;47.984;7.668;2023-07-31T06:23:43;20.40;99.90
2389;DHT22;1205;47.984;7.668;2023-07-31T06:26:09;20.30;99.70
2389;DHT22;1205;47.984;7.668;2023-07-31T06:28:34;20.30;99.90
2389;DHT22;1205;47.984;7.668;2023-07-31T06:31:00;20.40;99.90
2389;DHT22;1205;47.984;7.668;2023-07-31T06:33:27;20.40;99.90
2389;DHT22;1205;47.984;7.668;2023-07-31T06:35:53;20.70;99.90
2389;DHT22;1205;47.984;7.668;2023-07-31T06:38:22;20.80;99.40
2389;DHT22;1205;47.984;7.668;2023-07-31T06:40:48;20.90;99.20
2389;DHT22;1205;47.984;7.668;2023-07-31T06:43:14;20.90;99.00
2389;DHT22;1205;47.984;7.668;2023-07-31T06:45:40;20.90;98.90
2389;DHT22;1205;47.984;7.668;2023-07-31T06:48:05;21.00;98.80
2389;DHT22;1205;47.984;7.668;2023-07-31T06:50:31;21.00;99.00
2389;DHT22;1205;47.984;7.668;2023-07-31T06:52:57;21.10;98.30
2389;DHT22;1205;47.984;7.668;2023-07-31T06:55:23;21.10;98.40
2389;DHT22;1205;47.984;7.668;2023-07-31T06:57:53;21.30;97.40
2389;DHT22;1205;47.984;7.668;2023-07-31T07:00:20;21.40;98.00
2389;DHT22;1205;47.984;7.668;2023-07-31T07:02:46;21.50;97.70
2389;DHT22;1205;47.984;7.668;2023-07-31T07:05:13;21.50;97.20
2389;DHT22;1205;47.984;7.668;2023-07-31T07:07:38;21.60;97.10
2389;DHT22;1205;47.984;7.668;2023-07-31T07:10:04;21.50;97.30
2389;DHT22;1205;47.984;7.668;2023-07-31T07:12:31;21.50;97.20
2389;DHT22;1205;47.984;7.668;2023-07-31T07:14:57;21.70;97.00
2389;DHT22;1205;47.984;7.668;2023-07-31T07:17:29;21.70;96.70
2389;DHT22;1205;47.984;7.668;2023-07-31T07:19:57;21.90;96.30
2389;DHT22;1205;47.984;7.668;2023-07-31T07:22:23;22.10;96.20
2389;DHT22;1205;47.984;7.668;2023-07-31T07:24:48;22.70;95.70
2389;DHT22;1205;47.984;7.668;2023-07-31T07:27:14;23.00;95.30
2389;DHT22;1205;47.984;7.668;2023-07-31T07:29:40;23.30;94.50
2389;DHT22;1205;47.984;7.668;2023-07-31T07:32:06;23.40;93.70
2389;DHT22;1205;47.984;7.668;2023-07-31T07:34:31;24.20;94.30
2389;DHT22;1205;47.984;7.668;2023-07-31T07:36:57;24.60;93.50
2389;DHT22;1205;47.984;7.668;2023-07-31T07:39:22;24.80;92.50
2389;DHT22;1205;47.984;7.668;2023-07-31T07:41:48;24.90;91.80
2389;DHT22;1205;47.984;7.668;2023-07-31T07:44:14;25.00;92.40
2389;DHT22;1205;47.984;7.668;2023-07-31T07:46:40;25.50;91.40
2389;DHT22;1205;47.984;7.668;2023-07-31T07:49:06;25.40;90.90
2389;DHT22;1205;47.984;7.668;2023-07-31T07:51:32;25.60;91.10
2389;DHT22;1205;47.984;7.668;2023-07-31T07:53:58;25.30;91.10
2389;DHT22;1205;47.984;7.668;2023-07-31T07:56:26;25.20;91.10
2389;DHT22;1205;47.984;7.668;2023-07-31T07:58:52;25.60;91.40
2389;DHT22;1205;47.984;7.668;2023-07-31T08:01:17;26.00;90.70
2389;DHT22;1205;47.984;7.668;2023-07-31T08:03:43;26.90;91.00
2389;DHT22;1205;47.984;7.668;2023-07-31T08:06:09;26.80;88.70
2389;DHT22;1205;47.984;7.668;2023-07-31T08:08:35;25.70;88.00
2389;DHT22;1205;47.984;7.668;2023-07-31T08:11:01;24.80;89.60
2389;DHT22;1205;47.984;7.668;2023-07-31T08:13:27;24.40;90.50
2389;DHT22;1205;47.984;7.668;2023-07-31T08:15:52;24.40;90.90
2389;DHT22;1205;47.984;7.668;2023-07-31T08:18:18;23.80;90.40
2389;DHT22;1205;47.984;7.668;2023-07-31T08:20:44;23.50;91.50
2389;DHT22;1205;47.984;7.668;2023-07-31T08:23:09;24.10;91.10
2389;DHT22;1205;47.984;7.668;2023-07-31T08:25:36;24.10;91.00
2389;DHT22;1205;47.984;7.668;2023-07-31T08:28:02;24.60;90.60
2389;DHT22;1205;47.984;7.668;2023-07-31T08:30:28;25.10;89.80
2389;DHT22;1205;47.984;7.668;2023-07-31T08:32:53;25.20;90.10
2389;DHT22;1205;47.984;7.668;2023-07-31T08:35:19;24.20;90.60
2389;DHT22;1205;47.984;7.668;2023-07-31T08:37:44;24.60;91.30
2389;DHT22;1205;47.984;7.668;2023-07-31T08:40:10;25.20;90.90
2389;DHT22;1205;47.984;7.668;2023-07-31T08:42:49;25.60;90.50
2389;DHT22;1205;47.984;7.668;2023-07-31T08:45:16;26.00;90.10
2389;DHT22;1205;47.984;7.668;2023-07-31T08:47:47;26.00;88.40
2389;DHT22;1205;47.984;7.668;2023-07-31T08:50:14;26.30;89.50
2389;DHT22;1205;47.984;7.668;2023-07-31T08:52:40;26.00;85.80
2389;DHT22;1205;47.984;7.668;2023-07-31T08:55:06;25.30;89.20
2389;DHT22;1205;47.984;7.668;2023-07-31T08:57:35;24.70;88.30
2389;DHT22;1205;47.984;7.668;2023-07-31T09:00:04;25.10;90.80
2389;DHT22;1205;47.984;7.668;2023-07-31T09:05:17;24.30;89.80
2389;DHT22;1205;47.984;7.668;2023-07-31T09:07:44;24.40;89.20
2389;DHT22;1205;47.984;7.668;2023-07-31T09:10:11;23.90;89.80
2389;DHT22;1205;47.984;7.668;2023-07-31T09:12:38;23.90;90.70
2389;DHT22;1205;47.984;7.668;2023-07-31T09:15:04;23.80;90.90
2389;DHT22;1205;47.984;7.668;2023-07-31T09:17:34;24.10;90.80
2389;DHT22;1205;47.984;7.668;2023-07-31T09:20:18;24.10;90.80
2389;DHT22;1205;47.984;7.668;2023-07-31T09:22:45;23.90;91.20
2389;DHT22;1205;47.984;7.668;2023-07-31T09:30:25;24.50;90.90
2389;DHT22;1205;47.984;7.668;2023-07-31T09:33:00;24.60;90.80
2389;DHT22;1205;47.984;7.668;2023-07-31T09:35:30;24.80;91.10
2389;DHT22;1205;47.984;7.668;2023-07-31T09:38:07;24.50;89.40
2389;DHT22;1205;47.984;7.668;2023-07-31T09:40:38;24.10;91.00
2389;DHT22;1205;47.984;7.668;2023-07-31T09:43:09;24.20;91.20
2389;DHT22;1205;47.984;7.668;2023-07-31T09:45:40;23.40;90.60
2389;DHT22;1205;47.984;7.668;2023-07-31T09:48:11;23.20;90.80
2389;DHT22;1205;47.984;7.668;2023-07-31T09:50:39;23.00;92.00
2389;DHT22;1205;47.984;7.668;2023-07-31T09:53:05;23.10;91.30
2389;DHT22;1205;47.984;7.668;2023-07-31T09:55:32;23.30;91.70
2389;DHT22;1205;47.984;7.668;2023-07-31T09:57:58;23.80;91.50
2389;DHT22;1205;47.984;7.668;2023-07-31T10:00:24;24.30;90.90
2389;DHT22;1205;47.984;7.668;2023-07-31T10:02:54;23.80;90.10
2389;DHT22;1205;47.984;7.668;2023-07-31T10:05:22;23.70;90.90
2389;DHT22;1205;47.984;7.668;2023-07-31T10:07:54;23.60;90.60
2389;DHT22;1205;47.984;7.668;2023-07-31T10:10:21;23.90;91.10
2389;DHT22;1205;47.984;7.668;2023-07-31T10:12:52;24.10;91.80
2389;DHT22;1205;47.984;7.668;2023-07-31T10:15:18;24.30;91.70
2389;DHT22;1205;47.984;7.668;2023-07-31T10:17:44;23.90;90.70
2389;DHT22;1205;47.984;7.668;2023-07-31T10:20:11;23.70;90.90
2389;DHT22;1205;47.984;7.668;2023-07-31T10:22:38;23.50;91.10
2389;DHT22;1205;47.984;7.668;2023-07-31T10:25:05;23.70;90.90
2389;DHT22;1205;47.984;7.668;2023-07-31T10:27:35;23.80;91.60
2389;DHT22;1205;47.984;7.668;2023-07-31T10:30:03;23.80;91.80
2389;DHT22;1205;47.984;7.668;2023-07-31T10:32:30;23.70;90.70
2389;DHT22;1205;47.984;7.668;2023-07-31T10:34:56;24.20;91.80
2389;DHT22;1205;47.984;7.668;2023-07-31T10:37:39;24.60;90.80
2389;DHT22;1205;47.984;7.668;2023-07-31T10:40:06;25.00;90.60
2389;DHT22;1205;47.984;7.668;2023-07-31T10:42:36;25.00;90.10
2389;DHT22;1205;47.984;7.668;2023-07-31T10:45:07;25.10;90.10
2389;DHT22;1205;47.984;7.668;2023-07-31T10:47:46;25.00;90.60
2389;DHT22;1205;47.984;7.668;2023-07-31T10:52:38;25.00;88.20
2389;DHT22;1205;47.984;7.668;2023-07-31T10:55:41;24.90;90.00
2389;DHT22;1205;47.984;7.668;2023-07-31T10:58:12;24.70;90.10
2389;DHT22;1205;47.984;7.668;2023-07-31T11:00:42;25.20;90.30
2389;DHT22;1205;47.984;7.668;2023-07-31T11:03:16;24.40;90.00
2389;DHT22;1205;47.984;7.668;2023-07-31T11:05:53;24.70;90.70
2389;DHT22;1205;47.984;7.668;2023-07-31T11:08:26;25.10;90.70
2389;DHT22;1205;47.984;7.668;2023-07-31T11:13:32;25.40;90.90
2389;DHT22;1205;47.984;7.668;2023-07-31T11:15:58;25.20;90.70
2389;DHT22;1205;47.984;7.668;2023-07-31T11:18:24;24.70;90.20
2389;DHT22;1205;47.984;7.668;2023-07-31T11:20:51;24.70;90.60
2389;DHT22;1205;47.984;7.668;2023-07-31T11:23:17;24.80;90.60
2389;DHT22;1205;47.984;7.668;2023-07-31T11:25:43;25.00;91.60
2389;DHT22;1205;47.984;7.668;2023-07-31T11:28:14;24.70;90.40
2389;DHT22;1205;47.984;7.668;2023-07-31T11:30:41;24.60;90.70
2389;DHT22;1205;47.984;7.668;2023-07-31T11:33:07;24.10;90.70
2389;DHT22;1205;47.984;7.668;2023-07-31T11:35:44;24.50;90.90
2389;DHT22;1205;47.984;7.668;2023-07-31T11:38:12;24.70;90.50
2389;DHT22;1205;47.984;7.668;2023-07-31T11:40:42;24.80;90.70
2389;DHT22;1205;47.984;7.668;2023-07-31T11:43:08;24.90;90.10
2389;DHT22;1205;47.984;7.668;2023-07-31T11:45:33;24.90;90.40
2389;DHT22;1205;47.984;7.668;2023-07-31T11:48:01;24.60;89.40
2389;DHT22;1205;47.984;7.668;2023-07-31T11:50:27;24.90;90.10
2389;DHT22;1205;47.984;7.668;2023-07-31T11:53:06;25.00;89.10
2389;DHT22;1205;47.984;7.668;2023-07-31T11:55:32;25.10;89.60
2389;DHT22;1205;47.984;7.668;2023-07-31T11:57:59;24.90;89.30
2389;DHT22;1205;47.984;7.668;2023-07-31T12:00:25;25.30;89.90
2389;DHT22;1205;47.984;7.668;2023-07-31T12:02:51;25.60;90.30
2389;DHT22;1205;47.984;7.668;2023-07-31T12:05:18;25.10;88.40
2389;DHT22;1205;47.984;7.668;2023-07-31T12:07:49;25.30;90.20
2389;DHT22;1205;47.984;7.668;2023-07-31T12:10:31;25.70;90.40
2389;DHT22;1205;47.984;7.668;2023-07-31T12:13:02;25.60;90.00
2389;DHT22;1205;47.984;7.668;2023-07-31T12:15:41;25.80;89.40
2389;DHT22;1205;47.984;7.668;2023-07-31T12:18:09;25.60;88.80
2389;DHT22;1205;47.984;7.668;2023-07-31T12:20:39;25.40;89.80
2389;DHT22;1205;47.984;7.668;2023-07-31T12:23:05;25.40;88.40
2389;DHT22;1205;47.984;7.668;2023-07-31T12:25:32;25.30;88.10
2389;DHT22;1205;47.984;7.668;2023-07-31T12:28:04;25.10;89.70
2389;DHT22;1205;47.984;7.668;2023-07-31T12:30:34;25.30;89.90
2389;DHT22;1205;47.984;7.668;2023-07-31T12:33:04;25.90;89.20
2389;DHT22;1205;47.984;7.668;2023-07-31T12:35:38;25.90;89.00
2389;DHT22;1205;47.984;7.668;2023-07-31T12:38:03;25.80;87.90
2389;DHT22;1205;47.984;7.668;2023-07-31T12:40:29;25.90;87.40
2389;DHT22;1205;47.984;7.668;2023-07-31T12:42:55;25.60;87.20
2389;DHT22;1205;47.984;7.668;2023-07-31T12:45:20;25.70;87.80
2389;DHT22;1205;47.984;7.668;2023-07-31T12:47:46;25.80;87.70
2389;DHT22;1205;47.984;7.668;2023-07-31T12:50:12;25.80;88.20
2389;DHT22;1205;47.984;7.668;2023-07-31T12:52:38;25.70;88.50
2389;DHT22;1205;47.984;7.668;2023-07-31T12:55:03;25.80;87.10
2389;DHT22;1205;47.984;7.668;2023-07-31T12:57:30;25.90;89.00
2389;DHT22;1205;47.984;7.668;2023-07-31T12:59:55;26.10;90.20
2389;DHT22;1205;47.984;7.668;2023-07-31T13:02:21;26.40;86.70
2389;DHT22;1205;47.984;7.668;2023-07-31T13:04:47;26.60;85.90
2389;DHT22;1205;47.984;7.668;2023-07-31T13:07:12;26.30;86.40
2389;DHT22;1205;47.984;7.668;2023-07-31T13:09:38;26.20;85.90
2389;DHT22;1205;47.984;7.668;2023-07-31T13:12:04;26.20;86.60
2389;DHT22;1205;47.984;7.668;2023-07-31T13:14:29;26.50;87.20
2389;DHT22;1205;47.984;7.668;2023-07-31T13:16:55;26.70;85.60
2389;DHT22;1205;47.984;7.668;2023-07-31T13:19:20;26.50;85.20
2389;DHT22;1205;47.984;7.668;2023-07-31T13:21:46;26.30;85.60
2389;DHT22;1205;47.984;7.668;2023-07-31T13:24:12;26.50;86.30
2389;DHT22;1205;47.984;7.668;2023-07-31T13:26:37;26.70;85.40
2389;DHT22;1205;47.984;7.668;2023-07-31T13:29:03;26.80;85.20
2389;DHT22;1205;47.984;7.668;2023-07-31T13:31:28;26.80;85.10
2389;DHT22;1205;47.984;7.668;2023-07-31T13:33:54;27.10;86.70
2389;DHT22;1205;47.984;7.668;2023-07-31T13:36:19;27.40;87.00
2389;DHT22;1205;47.984;7.668;2023-07-31T13:38:45;27.30;83.90
2389;DHT22;1205;47.984;7.668;2023-07-31T13:41:10;27.30;84.60
2389;DHT22;1205;47.984;7.668;2023-07-31T13:43:36;26.90;85.00
2389;DHT22;1205;47.984;7.668;2023-07-31T13:46:01;27.00;84.70
2389;DHT22;1205;47.984;7.668;2023-07-31T13:48:34;27.30;86.30
2389;DHT22;1205;47.984;7.668;2023-07-31T13:51:00;27.40;83.90
2389;DHT22;1205;47.984;7.668;2023-07-31T13:53:25;27.60;84.30
2389;DHT22;1205;47.984;7.668;2023-07-31T13:55:51;27.50;82.10
2389;DHT22;1205;47.984;7.668;2023-07-31T13:58:17;27.70;83.60
2389;DHT22;1205;47.984;7.668;2023-07-31T14:00:43;27.90;84.20
2389;DHT22;1205;47.984;7.668;2023-07-31T14:03:08;27.90;84.00
2389;DHT22;1205;47.984;7.668;2023-07-31T14:05:35;27.70;82.90
2389;DHT22;1205;47.984;7.668;2023-07-31T14:08:00;27.80;83.80
2389;DHT22;1205;47.984;7.668;2023-07-31T14:10:26;27.60;81.60
2389;DHT22;1205;47.984;7.668;2023-07-31T14:12:51;27.70;82.00
2389;DHT22;1205;47.984;7.668;2023-07-31T14:15:17;27.60;82.60
2389;DHT22;1205;47.984;7.668;2023-07-31T14:17:42;27.30;82.00
2389;DHT22;1205;47.984;7.668;2023-07-31T14:20:09;27.30;81.90
2389;DHT22;1205;47.984;7.668;2023-07-31T14:22:34;27.10;81.50
2389;DHT22;1205;47.984;7.668;2023-07-31T14:25:00;27.00;81.80
2389;DHT22;1205;47.984;7.668;2023-07-31T14:27:26;27.10;83.50
2389;DHT22;1205;47.984;7.668;2023-07-31T14:29:51;27.20;82.90
2389;DHT22;1205;47.984;7.668;2023-07-31T14:32:17;27.20;83.00
2389;DHT22;1205;47.984;7.668;2023-07-31T14:34:42;27.10;82.70
2389;DHT22;1205;47.984;7.668;2023-07-31T14:37:08;27.10;83.20
2389;DHT22;1205;47.984;7.668;2023-07-31T14:39:33;27.00;83.70
2389;DHT22;1205;47.984;7.668;2023-07-31T14:41:59;26.70;82.60
2389;DHT22;1205;47.984;7.668;2023-07-31T14:44:25;26.50;83.50
2389;DHT22;1205;47.984;7.668;2023-07-31T14:46:50;26.70;84.00
2389;DHT22;1205;47.984;7.668;2023-07-31T14:49:16;26.70;82.80
2389;DHT22;1205;47.984;7.668;2023-07-31T14:51:41;26.70;83.70
2389;DHT22;1205;47.984;7.668;2023-07-31T14:54:07;26.90;84.40
2389;DHT22;1205;47.984;7.668;2023-07-31T14:56:33;26.90;83.90
2389;DHT22;1205;47.984;7.668;2023-07-31T14:58:58;27.00;84.80
2389;DHT22;1205;47.984;7.668;2023-07-31T15:01:24;27.20;84.60
2389;DHT22;1205;47.984;7.668;2023-07-31T15:03:50;27.50;84.70
2389;DHT22;1205;47.984;7.668;2023-07-31T15:06:15;27.40;83.80
2389;DHT22;1205;47.984;7.668;2023-07-31T15:08:41;27.00;83.70
2389;DHT22;1205;47.984;7.668;2023-07-31T15:11:07;26.90;83.70
2389;DHT22;1205;47.984;7.668;2023-07-31T15:13:33;26.70;83.30
2389;DHT22;1205;47.984;7.668;2023-07-31T15:15:59;26.50;83.50
2389;DHT22;1205;47.984;7.668;2023-07-31T15:18:24;26.40;84.40
2389;DHT22;1205;47.984;7.668;2023-07-31T15:20:50;26.40;84.60
2389;DHT22;1205;47.984;7.668;2023-07-31T15:23:16;26.40;84.10
2389;DHT22;1205;47.984;7.668;2023-07-31T15:25:41;26.30;84.00
2389;DHT22;1205;47.984;7.668;2023-07-31T15:28:08;26.30;84.30
2389;DHT22;1205;47.984;7.668;2023-07-31T15:30:35;26.50;85.50
2389;DHT22;1205;47.984;7.668;2023-07-31T15:33:01;26.60;84.20
2389;DHT22;1205;47.984;7.668;2023-07-31T15:35:27;26.70;84.60
2389;DHT22;1205;47.984;7.668;2023-07-31T15:37:53;26.60;84.00
2389;DHT22;1205;47.984;7.668;2023-07-31T15:40:18;26.30;83.80
2389;DHT22;1205;47.984;7.668;2023-07-31T15:42:44;26.30;84.90
2389;DHT22;1205;47.984;7.668;2023-07-31T15:45:10;26.40;85.10
2389;DHT22;1205;47.984;7.668;2023-07-31T15:47:36;26.50;86.70
2389;DHT22;1205;47.984;7.668;2023-07-31T15:50:01;26.60;87.20
2389;DHT22;1205;47.984;7.668;2023-07-31T15:52:27;26.50;87.10
2389;DHT22;1205;47.984;7.668;2023-07-31T15:54:53;26.70;87.80
2389;DHT22;1205;47.984;7.668;2023-07-31T15:57:18;26.60;86.50
2389;DHT22;1205;47.984;7.668;2023-07-31T15:59:44;26.30;85.60
2389;DHT22;1205;47.984;7.668;2023-07-31T16:02:09;25.90;86.80
2389;DHT22;1205;47.984;7.668;2023-07-31T16:04:38;25.80;88.10
2389;DHT22;1205;47.984;7.668;2023-07-31T16:07:04;25.70;89.10
2389;DHT22;1205;47.984;7.668;2023-07-31T16:09:29;25.60;88.90
2389;DHT22;1205;47.984;7.668;2023-07-31T16:11:55;25.70;88.30
2389;DHT22;1205;47.984;7.668;2023-07-31T16:14:20;25.40;89.10
2389;DHT22;1205;47.984;7.668;2023-07-31T16:16:46;25.60;90.60
2389;DHT22;1205;47.984;7.668;2023-07-31T16:19:14;25.80;90.70